sensor_id;sensor_type;location;lat;lon;timestamp;P1;durP1;ratioP1;P2;durP2;ratioP2
17201;SDS011;8717;53.588;10.176;2023-08-07T00:01:41;5.90;;;2.53;;
17201;SDS011;8717;53.588;10.176;2023-08-07T00:04:08;4.33;;;2.40;;
17201;SDS011;8717;53.588;10.176;2023-08-07T00:06:35;4.53;;;2.90;;
17201;SDS011;8717;53.588;10.176;2023-08-07T00:09:03;3.43;;;2.40;;
17201;SDS011;8717;53.588;10.176;2023-08-07T00:11:30;5.07;;;2.03;;
17201;SDS011;8717;53.588;10.176;2023-08-07T00:13:57;3.93;;;2.40;;
17201;SDS011;8717;53.588;10.176;2023-08-07T00:16:24;3.77;;;2.30;;
17201;SDS011;8717;53.588;10.176;2023-08-07T00:18:51;3.80;;;2.20;;
17201;SDS011;8717;53.588;10.176;2023-08-07T00:21:21;3.87;;;2.40;;
17201;SDS011;8717;53.588;10.176;2023-08-07T00:23:48;3.23;;;2.37;;
17201;SDS011;8717;53.588;10.176;2023-08-07T00:26:17;3.33;;;2.07;;
17201;SDS011;8717;53.588;10.176;2023-08-07T00:28:43;4.20;;;1.80;;
17201;SDS011;8717;53.588;10.176;2023-08-07T00:31:10;3.63;;;1.90;;
17201;SDS011;8717;53.588;10.176;2023-08-07T00:33:39;3.00;;;2.10;;
17201;SDS011;8717;53.588;10.176;2023-08-07T00:36:07;3.93;;;2.37;;
17201;SDS011;8717;53.588;10.176;2023-08-07T00:38:34;2.10;;;1.87;;
17201;SDS011;8717;53.588;10.176;2023-08-07T00:41:00;2.20;;;1.77;;
17201;SDS011;8717;53.588;10.176;2023-08-07T00:43:28;6.27;;;2.10;;
17201;SDS011;8717;53.588;10.176;2023-08-07T00:45:55;3.50;;;2.03;;
17201;SDS011;8717;53.588;10.176;2023-08-07T00:48:23;4.40;;;1.87;;
17201;SDS011;8717;53.588;10.176;2023-08-07T00:50:49;4.13;;;1.90;;
17201;SDS011;8717;53.588;10.176;2023-08-07T00:53:17;2.33;;;1.80;;
17201;SDS011;8717;53.588;10.176;2023-08-07T00:55:45;2.73;;;1.63;;
17201;SDS011;8717;53.588;10.176;2023-08-07T00:58:12;2.90;;;2.00;;
17201;SDS011;8717;53.588;10.176;2023-08-07T01:00:41;3.63;;;2.13;;
17201;SDS011;8717;53.588;10.176;2023-08-07T01:03:08;4.83;;;2.10;;
17201;SDS011;8717;53.588;10.176;2023-08-07T01:05:37;4.07;;;1.90;;
17201;SDS011;8717;53.588;10.176;2023-08-07T01:08:04;4.87;;;2.10;;
17201;SDS011;8717;53.588;10.176;2023-08-07T01:10:34;5.30;;;2.00;;
17201;SDS011;8717;53.588;10.176;2023-08-07T01:13:13;3.73;;;1.90;;
17201;SDS011;8717;53.588;10.176;2023-08-07T01:15:46;3.20;;;1.90;;
17201;SDS011;8717;53.588;10.176;2023-08-07T01:18:14;3.50;;;1.90;;
17201;SDS011;8717;53.588;10.176;2023-08-07T01:20:42;4.77;;;1.90;;
17201;SDS011;8717;53.588;10.176;2023-08-07T01:23:10;5.70;;;2.07;;
17201;SDS011;8717;53.588;10.176;2023-08-07T01:25:37;4.27;;;2.00;;
17201;SDS011;8717;53.588;10.176;2023-08-07T01:28:06;2.47;;;1.83;;
17201;SDS011;8717;53.588;10.176;2023-08-07T01:30:40;3.27;;;1.60;;
17201;SDS011;8717;53.588;10.176;2023-08-07T01:33:12;3.30;;;1.67;;
17201;SDS011;8717;53.588;10.176;2023-08-07T01:35:47;4.27;;;2.03;;
17201;SDS011;8717;53.588;10.176;2023-08-07T01:38:18;2.77;;;1.80;;
17201;SDS011;8717;53.588;10.176;2023-08-07T01:40:49;3.70;;;1.60;;
17201;SDS011;8717;53.588;10.176;2023-08-07T01:43:18;6.67;;;1.57;;
17201;SDS011;8717;53.588;10.176;2023-08-07T01:45:45;2.83;;;1.90;;
17201;SDS011;8717;53.588;10.176;2023-08-07T01:48:12;1.97;;;1.67;;
17201;SDS011;8717;53.588;10.176;2023-08-07T01:50:39;2.70;;;1.50;;
17201;SDS011;8717;53.588;10.176;2023-08-07T01:53:05;2.47;;;1.50;;
17201;SDS011;8717;53.588;10.176;2023-08-07T01:55:33;5.97;;;1.53;;
17201;SDS011;8717;53.588;10.176;2023-08-07T01:58:00;4.57;;;2.00;;
17201;SDS011;8717;53.588;10.176;2023-08-07T02:00:27;3.30;;;1.80;;
17201;SDS011;8717;53.588;10.176;2023-08-07T02:02:54;2.87;;;1.70;;
17201;SDS011;8717;53.588;10.176;2023-08-07T02:05:21;3.53;;;1.83;;
17201;SDS011;8717;53.588;10.176;2023-08-07T02:07:48;2.73;;;1.70;;
17201;SDS011;8717;53.588;10.176;2023-08-07T02:10:15;4.73;;;2.00;;
17201;SDS011;8717;53.588;10.176;2023-08-07T02:12:43;3.83;;;1.60;;
17201;SDS011;8717;53.588;10.176;2023-08-07T02:15:10;3.60;;;1.50;;
17201;SDS011;8717;53.588;10.176;2023-08-07T02:17:37;3.73;;;1.90;;
17201;SDS011;8717;53.588;10.176;2023-08-07T02:20:06;3.40;;;1.90;;
17201;SDS011;8717;53.588;10.176;2023-08-07T02:22:34;4.37;;;1.67;;
17201;SDS011;8717;53.588;10.176;2023-08-07T02:25:01;3.40;;;1.77;;
17201;SDS011;8717;53.588;10.176;2023-08-07T02:27:28;2.73;;;1.50;;
17201;SDS011;8717;53.588;10.176;2023-08-07T02:29:56;4.07;;;2.13;;
17201;SDS011;8717;53.588;10.176;2023-08-07T02:32:23;4.07;;;1.63;;
17201;SDS011;8717;53.588;10.176;2023-08-07T02:34:53;2.73;;;1.53;;
17201;SDS011;8717;53.588;10.176;2023-08-07T02:37:22;2.63;;;1.50;;
17201;SDS011;8717;53.588;10.176;2023-08-07T02:39:49;3.97;;;1.60;;
17201;SDS011;8717;53.588;10.176;2023-08-07T02:42:16;3.03;;;1.67;;
17201;SDS011;8717;53.588;10.176;2023-08-07T02:44:43;4.27;;;2.07;;
17201;SDS011;8717;53.588;10.176;2023-08-07T02:47:11;3.80;;;1.87;;
17201;SDS011;8717;53.588;10.176;2023-08-07T02:49:38;3.37;;;1.83;;
17201;SDS011;8717;53.588;10.176;2023-08-07T02:52:06;2.60;;;1.73;;
17201;SDS011;8717;53.588;10.176;2023-08-07T02:54:33;2.43;;;1.97;;
17201;SDS011;8717;53.588;10.176;2023-08-07T02:57:00;5.93;;;2.03;;
17201;SDS011;8717;53.588;10.176;2023-08-07T02:59:26;3.10;;;1.80;;
17201;SDS011;8717;53.588;10.176;2023-08-07T03:01:53;3.97;;;2.27;;
17201;SDS011;8717;53.588;10.176;2023-08-07T03:04:21;4.03;;;1.97;;
17201;SDS011;8717;53.588;10.176;2023-08-07T03:06:48;3.70;;;1.97;;
17201;SDS011;8717;53.588;10.176;2023-08-07T03:09:15;3.67;;;2.30;;
17201;SDS011;8717;53.588;10.176;2023-08-07T03:11:41;3.43;;;1.83;;
17201;SDS011;8717;53.588;10.176;2023-08-07T03:14:08;3.80;;;1.90;;
17201;SDS011;8717;53.588;10.176;2023-08-07T03:16:35;3.17;;;1.80;;
17201;SDS011;8717;53.588;10.176;2023-08-07T03:19:01;2.87;;;1.90;;
17201;SDS011;8717;53.588;10.176;2023-08-07T03:21:29;7.10;;;2.40;;
17201;SDS011;8717;53.588;10.176;2023-08-07T03:23:56;3.40;;;1.90;;
17201;SDS011;8717;53.588;10.176;2023-08-07T03:26:23;2.63;;;1.70;;
17201;SDS011;8717;53.588;10.176;2023-08-07T03:28:50;2.83;;;1.77;;
17201;SDS011;8717;53.588;10.176;2023-08-07T03:31:17;4.97;;;2.10;;
17201;SDS011;8717;53.588;10.176;2023-08-07T03:33:44;3.83;;;1.73;;
17201;SDS011;8717;53.588;10.176;2023-08-07T03:36:12;3.87;;;2.17;;
17201;SDS011;8717;53.588;10.176;2023-08-07T03:38:41;3.27;;;1.70;;
17201;SDS011;8717;53.588;10.176;2023-08-07T03:41:09;2.07;;;1.50;;
17201;SDS011;8717;53.588;10.176;2023-08-07T03:43:38;2.77;;;1.63;;
17201;SDS011;8717;53.588;10.176;2023-08-07T03:46:05;4.90;;;2.13;;
17201;SDS011;8717;53.588;10.176;2023-08-07T03:48:32;2.53;;;1.60;;
17201;SDS011;8717;53.588;10.176;2023-08-07T03:51:04;6.70;;;1.67;;
17201;SDS011;8717;53.588;10.176;2023-08-07T03:53:37;2.10;;;1.50;;
17201;SDS011;8717;53.588;10.176;2023-08-07T03:56:05;4.57;;;1.73;;
17201;SDS011;8717;53.588;10.176;2023-08-07T03:58:32;6.60;;;2.03;;
17201;SDS011;8717;53.588;10.176;2023-08-07T04:00:59;4.27;;;1.77;;
17201;SDS011;8717;53.588;10.176;2023-08-07T04:03:26;2.87;;;1.90;;
17201;SDS011;8717;53.588;10.176;2023-08-07T04:05:53;4.63;;;1.80;;
17201;SDS011;8717;53.588;10.176;2023-08-07T04:08:21;5.20;;;1.83;;
17201;SDS011;8717;53.588;10.176;2023-08-07T04:10:57;5.50;;;1.70;;
17201;SDS011;8717;53.588;10.176;2023-08-07T04:13:26;2.10;;;1.60;;
17201;SDS011;8717;53.588;10.176;2023-08-07T04:15:53;4.67;;;1.90;;
17201;SDS011;8717;53.588;10.176;2023-08-07T04:18:20;4.80;;;1.70;;
17201;SDS011;8717;53.588;10.176;2023-08-07T04:20:48;3.77;;;1.90;;
17201;SDS011;8717;53.588;10.176;2023-08-07T04:23:16;5.40;;;1.90;;
17201;SDS011;8717;53.588;10.176;2023-08-07T04:25:49;7.27;;;2.00;;
17201;SDS011;8717;53.588;10.176;2023-08-07T04:28:17;3.33;;;1.73;;
17201;SDS011;8717;53.588;10.176;2023-08-07T04:30:47;4.93;;;2.20;;
17201;SDS011;8717;53.588;10.176;2023-08-07T04:33:16;6.47;;;2.23;;
17201;SDS011;8717;53.588;10.176;2023-08-07T04:35:43;4.63;;;1.97;;
17201;SDS011;8717;53.588;10.176;2023-08-07T04:38:11;4.87;;;2.47;;
17201;SDS011;8717;53.588;10.176;2023-08-07T04:40:42;4.33;;;1.93;;
17201;SDS011;8717;53.588;10.176;2023-08-07T04:43:10;6.00;;;2.20;;
17201;SDS011;8717;53.588;10.176;2023-08-07T04:45:37;5.27;;;2.20;;
17201;SDS011;8717;53.588;10.176;2023-08-07T04:48:06;6.50;;;2.40;;
17201;SDS011;8717;53.588;10.176;2023-08-07T04:50:33;3.47;;;1.83;;
17201;SDS011;8717;53.588;10.176;2023-08-07T04:53:00;8.77;;;2.60;;
17201;SDS011;8717;53.588;10.176;2023-08-07T04:55:26;5.77;;;2.20;;
17201;SDS011;8717;53.588;10.176;2023-08-07T04:57:53;4.63;;;1.90;;
17201;SDS011;8717;53.588;10.176;2023-08-07T05:00:21;7.67;;;2.60;;
17201;SDS011;8717;53.588;10.176;2023-08-07T05:02:48;6.27;;;2.27;;
17201;SDS011;8717;53.588;10.176;2023-08-07T05:05:16;5.70;;;2.20;;
17201;SDS011;8717;53.588;10.176;2023-08-07T05:07:44;6.33;;;2.13;;
17201;SDS011;8717;53.588;10.176;2023-08-07T05:10:10;6.30;;;2.40;;
17201;SDS011;8717;53.588;10.176;2023-08-07T05:12:37;6.07;;;2.07;;
17201;SDS011;8717;53.588;10.176;2023-08-07T05:15:04;4.53;;;2.10;;
17201;SDS011;8717;53.588;10.176;2023-08-07T05:17:32;5.13;;;2.17;;
17201;SDS011;8717;53.588;10.176;2023-08-07T05:20:01;5.07;;;2.30;;
17201;SDS011;8717;53.588;10.176;2023-08-07T05:22:35;6.70;;;2.10;;
17201;SDS011;8717;53.588;10.176;2023-08-07T05:25:08;7.63;;;2.43;;
17201;SDS011;8717;53.588;10.176;2023-08-07T05:27:40;8.63;;;2.33;;
17201;SDS011;8717;53.588;10.176;2023-08-07T05:30:07;6.83;;;2.40;;
17201;SDS011;8717;53.588;10.176;2023-08-07T05:32:34;5.67;;;2.57;;
17201;SDS011;8717;53.588;10.176;2023-08-07T05:35:03;6.30;;;2.43;;
17201;SDS011;8717;53.588;10.176;2023-08-07T05:37:30;7.20;;;2.23;;
17201;SDS011;8717;53.588;10.176;2023-08-07T05:39:58;5.30;;;2.37;;
17201;SDS011;8717;53.588;10.176;2023-08-07T05:42:25;5.57;;;2.47;;
17201;SDS011;8717;53.588;10.176;2023-08-07T05:44:52;4.70;;;2.20;;
17201;SDS011;8717;53.588;10.176;2023-08-07T05:47:18;8.00;;;2.53;;
17201;SDS011;8717;53.588;10.176;2023-08-07T05:49:45;5.97;;;2.07;;
17201;SDS011;8717;53.588;10.176;2023-08-07T05:52:12;7.97;;;2.40;;
17201;SDS011;8717;53.588;10.176;2023-08-07T05:54:40;8.90;;;2.57;;
17201;SDS011;8717;53.588;10.176;2023-08-07T05:57:30;4.50;;;2.10;;
17201;SDS011;8717;53.588;10.176;2023-08-07T05:59:57;7.90;;;2.27;;
17201;SDS011;8717;53.588;10.176;2023-08-07T06:02:37;6.70;;;2.27;;
17201;SDS011;8717;53.588;10.176;2023-08-07T06:05:10;6.57;;;2.23;;
17201;SDS011;8717;53.588;10.176;2023-08-07T06:07:47;5.27;;;2.10;;
17201;SDS011;8717;53.588;10.176;2023-08-07T06:10:16;6.00;;;2.27;;
17201;SDS011;8717;53.588;10.176;2023-08-07T06:12:47;3.43;;;2.17;;
17201;SDS011;8717;53.588;10.176;2023-08-07T06:15:16;7.50;;;2.07;;
17201;SDS011;8717;53.588;10.176;2023-08-07T06:17:43;4.67;;;2.53;;
17201;SDS011;8717;53.588;10.176;2023-08-07T06:20:10;5.20;;;2.00;;
17201;SDS011;8717;53.588;10.176;2023-08-07T06:22:41;7.37;;;2.50;;
17201;SDS011;8717;53.588;10.176;2023-08-07T06:25:08;7.43;;;2.80;;
17201;SDS011;8717;53.588;10.176;2023-08-07T06:27:37;8.40;;;2.73;;
17201;SDS011;8717;53.588;10.176;2023-08-07T06:30:19;7.77;;;2.40;;
17201;SDS011;8717;53.588;10.176;2023-08-07T06:32:46;9.77;;;2.50;;
17201;SDS011;8717;53.588;10.176;2023-08-07T06:35:13;5.60;;;2.53;;
17201;SDS011;8717;53.588;10.176;2023-08-07T06:37:40;6.83;;;2.60;;
17201;SDS011;8717;53.588;10.176;2023-08-07T06:40:07;8.67;;;3.00;;
17201;SDS011;8717;53.588;10.176;2023-08-07T06:42:34;8.40;;;2.73;;
17201;SDS011;8717;53.588;10.176;2023-08-07T06:45:04;10.03;;;2.57;;
17201;SDS011;8717;53.588;10.176;2023-08-07T06:47:39;6.60;;;2.40;;
17201;SDS011;8717;53.588;10.176;2023-08-07T06:50:06;9.33;;;3.03;;
17201;SDS011;8717;53.588;10.176;2023-08-07T06:52:33;11.13;;;3.23;;
17201;SDS011;8717;53.588;10.176;2023-08-07T06:54:59;11.40;;;2.87;;
17201;SDS011;8717;53.588;10.176;2023-08-07T06:57:27;11.57;;;2.97;;
17201;SDS011;8717;53.588;10.176;2023-08-07T06:59:53;11.63;;;2.77;;
17201;SDS011;8717;53.588;10.176;2023-08-07T07:02:20;9.50;;;2.90;;
17201;SDS011;8717;53.588;10.176;2023-08-07T07:04:48;9.17;;;2.97;;
17201;SDS011;8717;53.588;10.176;2023-08-07T07:07:15;10.73;;;3.30;;
17201;SDS011;8717;53.588;10.176;2023-08-07T07:09:42;12.13;;;2.97;;
17201;SDS011;8717;53.588;10.176;2023-08-07T07:12:08;14.10;;;3.10;;
17201;SDS011;8717;53.588;10.176;2023-08-07T07:14:35;8.17;;;2.93;;
17201;SDS011;8717;53.588;10.176;2023-08-07T07:17:02;10.33;;;3.03;;
17201;SDS011;8717;53.588;10.176;2023-08-07T07:19:29;7.80;;;2.90;;
17201;SDS011;8717;53.588;10.176;2023-08-07T07:21:57;9.23;;;3.10;;
17201;SDS011;8717;53.588;10.176;2023-08-07T07:24:23;9.50;;;3.33;;
17201;SDS011;8717;53.588;10.176;2023-08-07T07:26:50;8.40;;;2.93;;
17201;SDS011;8717;53.588;10.176;2023-08-07T07:29:17;11.37;;;3.30;;
17201;SDS011;8717;53.588;10.176;2023-08-07T07:31:44;8.10;;;2.80;;
17201;SDS011;8717;53.588;10.176;2023-08-07T07:34:11;10.37;;;3.13;;
17201;SDS011;8717;53.588;10.176;2023-08-07T07:36:38;9.40;;;3.60;;
17201;SDS011;8717;53.588;10.176;2023-08-07T07:39:06;10.73;;;3.43;;
17201;SDS011;8717;53.588;10.176;2023-08-07T07:41:35;8.30;;;3.07;;
17201;SDS011;8717;53.588;10.176;2023-08-07T07:44:01;10.47;;;3.37;;
17201;SDS011;8717;53.588;10.176;2023-08-07T07:46:31;11.37;;;3.43;;
17201;SDS011;8717;53.588;10.176;2023-08-07T07:48:58;10.37;;;2.93;;
17201;SDS011;8717;53.588;10.176;2023-08-07T07:51:26;6.27;;;3.17;;
17201;SDS011;8717;53.588;10.176;2023-08-07T07:53:54;7.40;;;2.83;;
17201;SDS011;8717;53.588;10.176;2023-08-07T07:56:22;10.63;;;3.20;;
17201;SDS011;8717;53.588;10.176;2023-08-07T07:58:48;8.37;;;3.00;;
17201;SDS011;8717;53.588;10.176;2023-08-07T08:01:15;7.67;;;3.20;;
17201;SDS011;8717;53.588;10.176;2023-08-07T08:03:43;10.27;;;3.07;;
17201;SDS011;8717;53.588;10.176;2023-08-07T08:06:10;10.77;;;3.27;;
17201;SDS011;8717;53.588;10.176;2023-08-07T08:08:37;14.82;;;3.10;;
17201;SDS011;8717;53.588;10.176;2023-08-07T08:11:04;11.67;;;3.70;;
17201;SDS011;8717;53.588;10.176;2023-08-07T08:13:32;11.87;;;3.70;;
17201;SDS011;8717;53.588;10.176;2023-08-07T08:16:00;7.90;;;3.13;;
17201;SDS011;8717;53.588;10.176;2023-08-07T08:18:27;7.00;;;2.70;;
17201;SDS011;8717;53.588;10.176;2023-08-07T08:20:54;9.83;;;2.90;;
17201;SDS011;8717;53.588;10.176;2023-08-07T08:23:21;21.73;;;3.60;;
17201;SDS011;8717;53.588;10.176;2023-08-07T08:25:48;13.00;;;3.47;;
17201;SDS011;8717;53.588;10.176;2023-08-07T08:28:16;9.77;;;3.53;;
17201;SDS011;8717;53.588;10.176;2023-08-07T08:30:45;10.03;;;2.53;;
17201;SDS011;8717;53.588;10.176;2023-08-07T08:33:11;11.43;;;3.53;;
17201;SDS011;8717;53.588;10.176;2023-08-07T08:35:39;10.10;;;3.37;;
17201;SDS011;8717;53.588;10.176;2023-08-07T08:38:06;10.83;;;3.60;;
17201;SDS011;8717;53.588;10.176;2023-08-07T08:40:33;12.57;;;3.53;;
17201;SDS011;8717;53.588;10.176;2023-08-07T08:43:01;11.33;;;3.30;;
17201;SDS011;8717;53.588;10.176;2023-08-07T08:45:28;11.87;;;3.40;;
17201;SDS011;8717;53.588;10.176;2023-08-07T08:48:00;10.03;;;3.60;;
17201;SDS011;8717;53.588;10.176;2023-08-07T08:50:28;11.90;;;3.37;;
17201;SDS011;8717;53.588;10.176;2023-08-07T08:52:56;13.60;;;3.97;;
17201;SDS011;8717;53.588;10.176;2023-08-07T08:55:23;8.50;;;3.37;;
17201;SDS011;8717;53.588;10.176;2023-08-07T08:57:51;13.00;;;4.10;;
17201;SDS011;8717;53.588;10.176;2023-08-07T09:00:21;11.27;;;3.63;;
17201;SDS011;8717;53.588;10.176;2023-08-07T09:03:18;12.13;;;3.53;;
17201;SDS011;8717;53.588;10.176;2023-08-07T09:06:35;10.30;;;3.60;;
17201;SDS011;8717;53.588;10.176;2023-08-07T09:09:02;13.13;;;3.80;;
17201;SDS011;8717;53.588;10.176;2023-08-07T09:11:29;12.87;;;4.03;;
17201;SDS011;8717;53.588;10.176;2023-08-07T09:13:56;8.37;;;3.07;;
17201;SDS011;8717;53.588;10.176;2023-08-07T09:16:24;10.70;;;3.10;;
17201;SDS011;8717;53.588;10.176;2023-08-07T09:18:54;11.97;;;3.73;;
17201;SDS011;8717;53.588;10.176;2023-08-07T09:21:21;12.17;;;3.97;;
17201;SDS011;8717;53.588;10.176;2023-08-07T09:23:47;11.17;;;3.60;;
17201;SDS011;8717;53.588;10.176;2023-08-07T09:26:15;13.50;;;3.87;;
17201;SDS011;8717;53.588;10.176;2023-08-07T09:28:48;12.07;;;3.80;;
17201;SDS011;8717;53.588;10.176;2023-08-07T09:31:17;20.40;;;4.00;;
17201;SDS011;8717;53.588;10.176;2023-08-07T09:33:46;12.60;;;3.57;;
17201;SDS011;8717;53.588;10.176;2023-08-07T09:36:14;13.93;;;3.30;;
17201;SDS011;8717;53.588;10.176;2023-08-07T09:38:42;10.40;;;3.63;;
17201;SDS011;8717;53.588;10.176;2023-08-07T09:41:09;11.73;;;4.23;;
17201;SDS011;8717;53.588;10.176;2023-08-07T09:43:36;12.83;;;3.20;;
17201;SDS011;8717;53.588;10.176;2023-08-07T09:46:03;11.53;;;3.73;;
17201;SDS011;8717;53.588;10.176;2023-08-07T09:48:30;10.73;;;2.93;;
17201;SDS011;8717;53.588;10.176;2023-08-07T09:50:59;10.70;;;3.10;;
17201;SDS011;8717;53.588;10.176;2023-08-07T09:53:29;11.00;;;3.40;;
17201;SDS011;8717;53.588;10.176;2023-08-07T09:55:56;9.67;;;3.47;;
17201;SDS011;8717;53.588;10.176;2023-08-07T09:58:23;13.33;;;3.60;;
17201;SDS011;8717;53.588;10.176;2023-08-07T10:00:50;8.73;;;3.00;;
17201;SDS011;8717;53.588;10.176;2023-08-07T10:03:18;11.40;;;2.70;;
17201;SDS011;8717;53.588;10.176;2023-08-07T10:05:45;10.23;;;3.20;;
17201;SDS011;8717;53.588;10.176;2023-08-07T10:08:12;7.80;;;2.63;;
17201;SDS011;8717;53.588;10.176;2023-08-07T10:10:40;8.17;;;2.87;;
17201;SDS011;8717;53.588;10.176;2023-08-07T10:13:07;10.02;;;2.90;;
17201;SDS011;8717;53.588;10.176;2023-08-07T10:15:34;9.13;;;2.70;;
17201;SDS011;8717;53.588;10.176;2023-08-07T10:18:01;11.75;;;3.13;;
17201;SDS011;8717;53.588;10.176;2023-08-07T10:20:29;6.53;;;2.50;;
17201;SDS011;8717;53.588;10.176;2023-08-07T10:22:57;9.10;;;2.80;;
17201;SDS011;8717;53.588;10.176;2023-08-07T10:25:26;6.75;;;2.38;;
17201;SDS011;8717;53.588;10.176;2023-08-07T10:27:56;6.68;;;2.75;;
17201;SDS011;8717;53.588;10.176;2023-08-07T10:30:25;8.75;;;2.72;;
17201;SDS011;8717;53.588;10.176;2023-08-07T10:32:53;8.73;;;2.80;;
17201;SDS011;8717;53.588;10.176;2023-08-07T10:35:24;7.68;;;2.80;;
17201;SDS011;8717;53.588;10.176;2023-08-07T10:37:51;7.75;;;2.75;;
17201;SDS011;8717;53.588;10.176;2023-08-07T10:40:19;8.43;;;2.72;;
17201;SDS011;8717;53.588;10.176;2023-08-07T10:42:51;7.68;;;3.00;;
17201;SDS011;8717;53.588;10.176;2023-08-07T10:45:22;7.95;;;2.60;;
17201;SDS011;8717;53.588;10.176;2023-08-07T10:48:02;8.88;;;2.97;;
17201;SDS011;8717;53.588;10.176;2023-08-07T10:50:31;8.00;;;2.55;;
17201;SDS011;8717;53.588;10.176;2023-08-07T10:52:59;7.82;;;2.72;;
17201;SDS011;8717;53.588;10.176;2023-08-07T10:55:26;13.20;;;2.67;;
17201;SDS011;8717;53.588;10.176;2023-08-07T10:57:57;4.45;;;2.40;;
17201;SDS011;8717;53.588;10.176;2023-08-07T11:00:26;7.80;;;2.40;;
17201;SDS011;8717;53.588;10.176;2023-08-07T11:02:54;8.23;;;2.97;;
17201;SDS011;8717;53.588;10.176;2023-08-07T11:05:24;8.32;;;2.58;;
17201;SDS011;8717;53.588;10.176;2023-08-07T11:07:51;8.40;;;2.40;;
17201;SDS011;8717;53.588;10.176;2023-08-07T11:10:20;10.07;;;2.88;;
17201;SDS011;8717;53.588;10.176;2023-08-07T11:12:46;8.52;;;2.55;;
17201;SDS011;8717;53.588;10.176;2023-08-07T11:15:14;7.00;;;2.72;;
17201;SDS011;8717;53.588;10.176;2023-08-07T11:17:42;7.72;;;2.53;;
17201;SDS011;8717;53.588;10.176;2023-08-07T11:20:11;5.03;;;2.33;;
17201;SDS011;8717;53.588;10.176;2023-08-07T11:22:38;8.88;;;2.75;;
17201;SDS011;8717;53.588;10.176;2023-08-07T11:25:06;9.05;;;2.85;;
17201;SDS011;8717;53.588;10.176;2023-08-07T11:27:38;7.05;;;2.40;;
17201;SDS011;8717;53.588;10.176;2023-08-07T11:30:05;6.93;;;2.67;;
17201;SDS011;8717;53.588;10.176;2023-08-07T11:32:36;6.63;;;2.15;;
17201;SDS011;8717;53.588;10.176;2023-08-07T11:35:05;9.00;;;2.85;;
17201;SDS011;8717;53.588;10.176;2023-08-07T11:37:33;8.70;;;2.65;;
17201;SDS011;8717;53.588;10.176;2023-08-07T11:40:00;5.13;;;2.20;;
17201;SDS011;8717;53.588;10.176;2023-08-07T11:42:28;6.65;;;2.42;;
17201;SDS011;8717;53.588;10.176;2023-08-07T11:44:55;4.88;;;1.85;;
17201;SDS011;8717;53.588;10.176;2023-08-07T11:47:21;4.88;;;1.83;;
17201;SDS011;8717;53.588;10.176;2023-08-07T11:49:48;4.93;;;2.22;;
17201;SDS011;8717;53.588;10.176;2023-08-07T11:52:16;8.80;;;2.20;;
17201;SDS011;8717;53.588;10.176;2023-08-07T11:54:46;6.68;;;2.10;;
17201;SDS011;8717;53.588;10.176;2023-08-07T11:57:16;7.80;;;2.17;;
17201;SDS011;8717;53.588;10.176;2023-08-07T11:59:47;6.28;;;2.20;;
17201;SDS011;8717;53.588;10.176;2023-08-07T12:02:14;5.78;;;2.00;;
17201;SDS011;8717;53.588;10.176;2023-08-07T12:04:41;7.68;;;2.15;;
17201;SDS011;8717;53.588;10.176;2023-08-07T12:07:08;6.03;;;1.60;;
17201;SDS011;8717;53.588;10.176;2023-08-07T12:09:37;4.55;;;1.60;;
17201;SDS011;8717;53.588;10.176;2023-08-07T12:12:05;5.15;;;1.60;;
17201;SDS011;8717;53.588;10.176;2023-08-07T12:14:32;5.78;;;2.10;;
17201;SDS011;8717;53.588;10.176;2023-08-07T12:17:00;7.65;;;1.83;;
17201;SDS011;8717;53.588;10.176;2023-08-07T12:19:35;5.40;;;1.83;;
17201;SDS011;8717;53.588;10.176;2023-08-07T12:22:05;6.72;;;1.92;;
17201;SDS011;8717;53.588;10.176;2023-08-07T12:24:34;5.22;;;1.75;;
17201;SDS011;8717;53.588;10.176;2023-08-07T12:27:03;5.38;;;1.90;;
17201;SDS011;8717;53.588;10.176;2023-08-07T12:29:30;4.82;;;2.00;;
17201;SDS011;8717;53.588;10.176;2023-08-07T12:31:57;5.75;;;1.75;;
17201;SDS011;8717;53.588;10.176;2023-08-07T12:34:26;8.45;;;1.95;;
17201;SDS011;8717;53.588;10.176;2023-08-07T12:36:52;5.10;;;1.73;;
17201;SDS011;8717;53.588;10.176;2023-08-07T12:39:19;7.00;;;2.05;;
17201;SDS011;8717;53.588;10.176;2023-08-07T12:41:46;7.53;;;2.00;;
17201;SDS011;8717;53.588;10.176;2023-08-07T12:44:16;6.88;;;2.20;;
17201;SDS011;8717;53.588;10.176;2023-08-07T12:46:42;6.85;;;2.30;;
17201;SDS011;8717;53.588;10.176;2023-08-07T12:49:09;6.28;;;2.75;;
17201;SDS011;8717;53.588;10.176;2023-08-07T12:51:35;8.68;;;2.60;;
17201;SDS011;8717;53.588;10.176;2023-08-07T12:54:02;7.67;;;2.27;;
17201;SDS011;8717;53.588;10.176;2023-08-07T12:56:29;5.20;;;2.30;;
17201;SDS011;8717;53.588;10.176;2023-08-07T12:58:56;8.17;;;2.67;;
17201;SDS011;8717;53.588;10.176;2023-08-07T13:01:24;7.88;;;2.65;;
17201;SDS011;8717;53.588;10.176;2023-08-07T13:03:51;9.77;;;2.33;;
17201;SDS011;8717;53.588;10.176;2023-08-07T13:06:18;10.18;;;2.50;;
17201;SDS011;8717;53.588;10.176;2023-08-07T13:08:45;7.40;;;2.13;;
17201;SDS011;8717;53.588;10.176;2023-08-07T13:11:12;4.77;;;2.17;;
17201;SDS011;8717;53.588;10.176;2023-08-07T13:13:38;4.55;;;2.13;;
17201;SDS011;8717;53.588;10.176;2023-08-07T13:16:05;5.82;;;2.42;;
17201;SDS011;8717;53.588;10.176;2023-08-07T13:18:33;5.22;;;1.80;;
17201;SDS011;8717;53.588;10.176;2023-08-07T13:21:00;7.43;;;2.10;;
17201;SDS011;8717;53.588;10.176;2023-08-07T13:23:26;6.47;;;2.03;;
17201;SDS011;8717;53.588;10.176;2023-08-07T13:25:53;7.43;;;2.20;;
17201;SDS011;8717;53.588;10.176;2023-08-07T13:28:20;5.60;;;2.03;;
17201;SDS011;8717;53.588;10.176;2023-08-07T13:30:47;5.78;;;2.40;;
17201;SDS011;8717;53.588;10.176;2023-08-07T13:33:16;6.00;;;2.17;;
17201;SDS011;8717;53.588;10.176;2023-08-07T13:35:46;7.30;;;2.33;;
17201;SDS011;8717;53.588;10.176;2023-08-07T13:38:13;5.13;;;2.47;;
17201;SDS011;8717;53.588;10.176;2023-08-07T13:40:40;6.80;;;2.78;;
17201;SDS011;8717;53.588;10.176;2023-08-07T13:43:09;7.45;;;2.35;;
17201;SDS011;8717;53.588;10.176;2023-08-07T13:45:36;8.60;;;2.85;;
17201;SDS011;8717;53.588;10.176;2023-08-07T13:48:03;13.45;;;2.92;;
17201;SDS011;8717;53.588;10.176;2023-08-07T13:50:31;8.18;;;2.83;;
17201;SDS011;8717;53.588;10.176;2023-08-07T13:53:00;9.02;;;2.88;;
17201;SDS011;8717;53.588;10.176;2023-08-07T13:55:29;9.23;;;2.90;;
17201;SDS011;8717;53.588;10.176;2023-08-07T13:58:01;9.65;;;3.03;;
17201;SDS011;8717;53.588;10.176;2023-08-07T14:00:29;10.05;;;2.80;;
17201;SDS011;8717;53.588;10.176;2023-08-07T14:02:56;8.82;;;3.20;;
17201;SDS011;8717;53.588;10.176;2023-08-07T14:05:23;8.75;;;2.70;;
17201;SDS011;8717;53.588;10.176;2023-08-07T14:07:49;7.55;;;2.70;;
17201;SDS011;8717;53.588;10.176;2023-08-07T14:10:19;11.85;;;2.60;;
17201;SDS011;8717;53.588;10.176;2023-08-07T14:12:46;8.40;;;3.00;;
17201;SDS011;8717;53.588;10.176;2023-08-07T14:15:12;6.65;;;2.40;;
17201;SDS011;8717;53.588;10.176;2023-08-07T14:17:39;8.10;;;2.83;;
17201;SDS011;8717;53.588;10.176;2023-08-07T14:20:06;8.80;;;2.88;;
17201;SDS011;8717;53.588;10.176;2023-08-07T14:22:35;8.75;;;2.90;;
17201;SDS011;8717;53.588;10.176;2023-08-07T14:25:03;9.23;;;2.75;;
17201;SDS011;8717;53.588;10.176;2023-08-07T14:27:32;8.47;;;2.83;;
17201;SDS011;8717;53.588;10.176;2023-08-07T14:29:59;10.07;;;2.65;;
17201;SDS011;8717;53.588;10.176;2023-08-07T14:32:26;8.98;;;2.40;;
17201;SDS011;8717;53.588;10.176;2023-08-07T14:34:52;10.73;;;2.63;;
17201;SDS011;8717;53.588;10.176;2023-08-07T14:37:19;6.90;;;2.50;;
17201;SDS011;8717;53.588;10.176;2023-08-07T14:39:46;9.80;;;2.70;;
17201;SDS011;8717;53.588;10.176;2023-08-07T14:42:12;6.97;;;2.90;;
17201;SDS011;8717;53.588;10.176;2023-08-07T14:44:40;10.00;;;2.87;;
17201;SDS011;8717;53.588;10.176;2023-08-07T14:47:07;9.35;;;3.03;;
17201;SDS011;8717;53.588;10.176;2023-08-07T14:49:35;6.93;;;2.87;;
17201;SDS011;8717;53.588;10.176;2023-08-07T14:52:02;5.87;;;2.50;;